sensor_id;sensor_type;location;lat;lon;timestamp;pressure;altitude;pressure_sealevel;temperature;humidity
63281;BME280;49406;51.044;3.766;2023-02-26T00:00:46;101994.75;;;1.16;88.99
63281;BME280;49406;51.044;3.766;2023-02-26T00:03:21;101993.52;;;1.21;89.12
63281;BME280;49406;51.044;3.766;2023-02-26T00:05:59;101991.56;;;1.26;88.67
63281;BME280;49406;51.044;3.766;2023-02-26T00:08:34;101991.31;;;1.25;88.75
63281;BME280;49406;51.044;3.766;2023-02-26T00:11:11;101987.80;;;1.24;88.76
63281;BME280;49406;51.044;3.766;2023-02-26T00:13:47;101987.14;;;1.24;88.76
63281;BME280;49406;51.044;3.766;2023-02-26T00:16:27;101982.66;;;1.24;88.59
63281;BME280;49406;51.044;3.766;2023-02-26T00:19:04;101982.75;;;1.23;88.38
63281;BME280;49406;51.044;3.766;2023-02-26T00:21:40;101979.70;;;1.15;88.24
63281;BME280;49406;51.044;3.766;2023-02-26T00:24:15;101985.98;;;1.11;88.50
63281;BME280;49406;51.044;3.766;2023-02-26T00:26:49;101990.31;;;1.09;88.64
63281;BME280;49406;51.044;3.766;2023-02-26T00:29:25;101995.17;;;1.07;88.35
63281;BME280;49406;51.044;3.766;2023-02-26T00:32:00;101992.52;;;1.03;88.98
63281;BME280;49406;51.044;3.766;2023-02-26T00:34:36;101994.14;;;1.01;88.82
63281;BME280;49406;51.044;3.766;2023-02-26T00:37:21;101997.05;;;1.01;88.99
63281;BME280;49406;51.044;3.766;2023-02-26T00:40:07;102000.67;;;0.99;88.77
63281;BME280;49406;51.044;3.766;2023-02-26T00:42:48;102001.83;;;0.96;88.98
63281;BME280;49406;51.044;3.766;2023-02-26T00:45:23;102002.11;;;1.03;88.99
63281;BME280;49406;51.044;3.766;2023-02-26T00:48:11;101997.98;;;1.13;88.26
63281;BME280;49406;51.044;3.766;2023-02-26T00:50:55;102002.72;;;1.14;88.02
63281;BME280;49406;51.044;3.766;2023-02-26T00:53:38;102008.17;;;1.16;88.05
63281;BME280;49406;51.044;3.766;2023-02-26T00:56:15;102012.36;;;1.14;88.39
63281;BME280;49406;51.044;3.766;2023-02-26T00:58:50;102012.83;;;1.11;88.52
63281;BME280;49406;51.044;3.766;2023-02-26T01:01:24;102014.53;;;1.08;88.78
63281;BME280;49406;51.044;3.766;2023-02-26T01:04:00;102016.02;;;1.07;88.98
63281;BME280;49406;51.044;3.766;2023-02-26T01:06:34;102016.98;;;1.06;89.10
63281;BME280;49406;51.044;3.766;2023-02-26T01:09:16;102020.98;;;1.09;89.40
63281;BME280;49406;51.044;3.766;2023-02-26T01:11:55;102016.79;;;1.11;88.84
63281;BME280;49406;51.044;3.766;2023-02-26T01:14:32;102019.20;;;1.08;89.14
63281;BME280;49406;51.044;3.766;2023-02-26T01:17:13;102022.48;;;1.11;89.58
63281;BME280;49406;51.044;3.766;2023-02-26T01:19:51;102024.55;;;1.19;89.63
63281;BME280;49406;51.044;3.766;2023-02-26T01:22:30;102027.45;;;1.35;89.42
63281;BME280;49406;51.044;3.766;2023-02-26T01:25:10;102023.48;;;1.56;88.45
63281;BME280;49406;51.044;3.766;2023-02-26T01:27:46;102022.17;;;1.74;88.34
63281;BME280;49406;51.044;3.766;2023-02-26T01:30:22;102020.64;;;1.82;88.09
63281;BME280;49406;51.044;3.766;2023-02-26T01:33:06;102022.59;;;1.89;88.17
63281;BME280;49406;51.044;3.766;2023-02-26T01:35:47;102023.29;;;1.97;88.07
63281;BME280;49406;51.044;3.766;2023-02-26T01:38:28;102027.50;;;2.06;87.98
63281;BME280;49406;51.044;3.766;2023-02-26T01:41:28;102029.36;;;2.15;87.88
63281;BME280;49406;51.044;3.766;2023-02-26T01:44:16;102038.83;;;2.25;87.57
63281;BME280;49406;51.044;3.766;2023-02-26T01:47:09;102038.09;;;2.42;87.11
63281;BME280;49406;51.044;3.766;2023-02-26T01:49:46;102035.41;;;2.57;86.39
63281;BME280;49406;51.044;3.766;2023-02-26T01:55:35;102037.69;;;2.64;86.18
63281;BME280;49406;51.044;3.766;2023-02-26T01:58:11;102032.42;;;2.68;86.12
63281;BME280;49406;51.044;3.766;2023-02-26T02:00:46;102029.52;;;2.71;86.00
63281;BME280;49406;51.044;3.766;2023-02-26T02:03:21;102034.06;;;2.76;85.65
63281;BME280;49406;51.044;3.766;2023-02-26T02:06:01;102032.46;;;2.89;85.06
63281;BME280;49406;51.044;3.766;2023-02-26T02:08:37;102036.42;;;3.04;84.41
63281;BME280;49406;51.044;3.766;2023-02-26T02:11:13;102039.54;;;3.07;84.15
63281;BME280;49406;51.044;3.766;2023-02-26T02:14:03;102035.83;;;3.06;84.32
63281;BME280;49406;51.044;3.766;2023-02-26T02:16:49;102038.14;;;3.07;84.40
63281;BME280;49406;51.044;3.766;2023-02-26T02:19:53;102040.61;;;3.08;84.40
63281;BME280;49406;51.044;3.766;2023-02-26T02:22:50;102038.30;;;3.07;84.37
63281;BME280;49406;51.044;3.766;2023-02-26T02:25:47;102038.38;;;3.20;84.17
63281;BME280;49406;51.044;3.766;2023-02-26T02:28:34;102040.08;;;3.29;83.33
63281;BME280;49406;51.044;3.766;2023-02-26T02:31:14;102043.10;;;3.27;83.47
63281;BME280;49406;51.044;3.766;2023-02-26T02:33:52;102045.98;;;3.23;83.64
63281;BME280;49406;51.044;3.766;2023-02-26T02:36:33;102045.06;;;3.22;83.87
63281;BME280;49406;51.044;3.766;2023-02-26T02:39:12;102046.01;;;3.20;83.98
63281;BME280;49406;51.044;3.766;2023-02-26T02:41:52;102043.58;;;3.18;84.00
63281;BME280;49406;51.044;3.766;2023-02-26T02:44:30;102044.80;;;3.15;84.11
63281;BME280;49406;51.044;3.766;2023-02-26T02:47:07;102052.09;;;3.24;83.77
63281;BME280;49406;51.044;3.766;2023-02-26T02:49:47;102051.77;;;3.25;83.69
63281;BME280;49406;51.044;3.766;2023-02-26T02:52:29;102052.73;;;3.15;84.15
63281;BME280;49406;51.044;3.766;2023-02-26T02:55:08;102056.12;;;3.07;84.58
63281;BME280;49406;51.044;3.766;2023-02-26T02:57:48;102054.15;;;3.03;85.07
63281;BME280;49406;51.044;3.766;2023-02-26T03:00:24;102056.71;;;3.00;85.28
63281;BME280;49406;51.044;3.766;2023-02-26T03:03:07;102060.24;;;2.95;85.71
63281;BME280;49406;51.044;3.766;2023-02-26T03:05:42;102065.89;;;3.00;85.74
63281;BME280;49406;51.044;3.766;2023-02-26T03:08:19;102069.55;;;3.03;85.60
63281;BME280;49406;51.044;3.766;2023-02-26T03:10:54;102073.48;;;3.00;85.92
63281;BME280;49406;51.044;3.766;2023-02-26T03:13:30;102078.55;;;2.92;86.38
63281;BME280;49406;51.044;3.766;2023-02-26T03:16:20;102082.20;;;2.87;86.88
63281;BME280;49406;51.044;3.766;2023-02-26T03:19:03;102087.29;;;2.82;87.16
63281;BME280;49406;51.044;3.766;2023-02-26T03:21:47;102088.25;;;2.81;87.16
63281;BME280;49406;51.044;3.766;2023-02-26T03:24:28;102091.77;;;2.85;87.02
63281;BME280;49406;51.044;3.766;2023-02-26T03:27:12;102095.55;;;2.93;86.39
63281;BME280;49406;51.044;3.766;2023-02-26T03:29:53;102095.73;;;2.90;86.35
63281;BME280;49406;51.044;3.766;2023-02-26T03:32:33;102097.44;;;2.79;86.40
63281;BME280;49406;51.044;3.766;2023-02-26T03:35:14;102099.14;;;2.72;86.11
63281;BME280;49406;51.044;3.766;2023-02-26T03:37:53;102098.46;;;2.69;85.48
63281;BME280;49406;51.044;3.766;2023-02-26T03:40:33;102100.46;;;2.80;84.70
63281;BME280;49406;51.044;3.766;2023-02-26T03:43:12;102098.92;;;2.71;83.09
63281;BME280;49406;51.044;3.766;2023-02-26T03:45:51;102112.68;;;2.62;83.64
63281;BME280;49406;51.044;3.766;2023-02-26T03:48:32;102117.53;;;2.54;83.45
63281;BME280;49406;51.044;3.766;2023-02-26T03:51:11;102123.58;;;2.56;82.98
63281;BME280;49406;51.044;3.766;2023-02-26T03:53:51;102129.73;;;2.41;82.90
63281;BME280;49406;51.044;3.766;2023-02-26T03:56:29;102129.59;;;2.31;82.79
63281;BME280;49406;51.044;3.766;2023-02-26T03:59:07;102134.48;;;2.24;82.62
63281;BME280;49406;51.044;3.766;2023-02-26T04:01:43;102139.70;;;2.21;81.61
63281;BME280;49406;51.044;3.766;2023-02-26T04:04:24;102143.54;;;2.25;80.42
63281;BME280;49406;51.044;3.766;2023-02-26T04:07:00;102142.23;;;2.16;79.51
63281;BME280;49406;51.044;3.766;2023-02-26T04:09:35;102145.45;;;2.06;78.26
63281;BME280;49406;51.044;3.766;2023-02-26T04:12:10;102147.53;;;2.03;78.16
63281;BME280;49406;51.044;3.766;2023-02-26T04:14:45;102152.83;;;1.97;77.43
63281;BME280;49406;51.044;3.766;2023-02-26T04:17:20;102160.67;;;2.06;77.01
63281;BME280;49406;51.044;3.766;2023-02-26T04:19:55;102163.69;;;2.00;77.17
63281;BME280;49406;51.044;3.766;2023-02-26T04:22:29;102166.67;;;1.87;77.86
63281;BME280;49406;51.044;3.766;2023-02-26T04:25:05;102167.52;;;1.76;78.23
63281;BME280;49406;51.044;3.766;2023-02-26T04:27:40;102173.50;;;1.70;78.32
63281;BME280;49406;51.044;3.766;2023-02-26T04:30:15;102185.01;;;1.65;78.28
63281;BME280;49406;51.044;3.766;2023-02-26T04:32:50;102186.64;;;1.73;77.35
63281;BME280;49406;51.044;3.766;2023-02-26T04:35:25;102188.48;;;1.70;76.64
63281;BME280;49406;51.044;3.766;2023-02-26T04:38:00;102194.14;;;1.59;77.14
63281;BME280;49406;51.044;3.766;2023-02-26T04:40:34;102202.95;;;1.52;77.22
63281;BME280;49406;51.044;3.766;2023-02-26T04:43:09;102202.35;;;1.45;76.74
63281;BME280;49406;51.044;3.766;2023-02-26T04:45:45;102207.49;;;1.39;76.39
63281;BME280;49406;51.044;3.766;2023-02-26T04:48:20;102212.63;;;1.36;76.08
63281;BME280;49406;51.044;3.766;2023-02-26T04:50:54;102214.75;;;1.45;75.70
63281;BME280;49406;51.044;3.766;2023-02-26T04:53:29;102219.65;;;1.46;75.36
63281;BME280;49406;51.044;3.766;2023-02-26T04:56:04;102218.87;;;1.34;75.68
63281;BME280;49406;51.044;3.766;2023-02-26T04:58:40;102220.55;;;1.26;75.71
63281;BME280;49406;51.044;3.766;2023-02-26T05:01:14;102224.66;;;1.18;76.01
63281;BME280;49406;51.044;3.766;2023-02-26T05:03:49;102228.73;;;1.12;75.89
63281;BME280;49406;51.044;3.766;2023-02-26T05:06:24;102231.77;;;1.09;75.95
63281;BME280;49406;51.044;3.766;2023-02-26T05:08:58;102233.02;;;1.05;76.12
63281;BME280;49406;51.044;3.766;2023-02-26T05:11:33;102236.50;;;1.07;75.85
63281;BME280;49406;51.044;3.766;2023-02-26T05:14:08;102236.42;;;1.14;75.44
63281;BME280;49406;51.044;3.766;2023-02-26T05:16:43;102238.69;;;1.09;75.47
63281;BME280;49406;51.044;3.766;2023-02-26T05:19:17;102242.13;;;1.04;75.97
63281;BME280;49406;51.044;3.766;2023-02-26T05:21:52;102236.44;;;0.97;76.42
63281;BME280;49406;51.044;3.766;2023-02-26T05:24:27;102236.19;;;0.90;76.52
63281;BME280;49406;51.044;3.766;2023-02-26T05:27:02;102236.89;;;0.83;76.83
63281;BME280;49406;51.044;3.766;2023-02-26T05:29:36;102242.48;;;0.74;77.21
63281;BME280;49406;51.044;3.766;2023-02-26T05:32:13;102247.42;;;0.69;77.31
63281;BME280;49406;51.044;3.766;2023-02-26T05:34:48;102246.48;;;0.63;77.36
63281;BME280;49406;51.044;3.766;2023-02-26T05:37:22;102253.53;;;0.75;77.02
63281;BME280;49406;51.044;3.766;2023-02-26T05:39:57;102254.05;;;0.77;76.78
63281;BME280;49406;51.044;3.766;2023-02-26T05:42:32;102252.98;;;0.74;76.92
63281;BME280;49406;51.044;3.766;2023-02-26T05:45:08;102255.28;;;0.66;77.15
63281;BME280;49406;51.044;3.766;2023-02-26T05:47:43;102256.00;;;0.64;77.32
63281;BME280;49406;51.044;3.766;2023-02-26T05:50:18;102258.45;;;0.59;77.61
63281;BME280;49406;51.044;3.766;2023-02-26T05:52:53;102255.80;;;0.53;77.61
63281;BME280;49406;51.044;3.766;2023-02-26T05:55:27;102262.36;;;0.51;77.86
63281;BME280;49406;51.044;3.766;2023-02-26T05:58:02;102265.25;;;0.46;77.87
63281;BME280;49406;51.044;3.766;2023-02-26T06:00:37;102266.41;;;0.41;78.34
63281;BME280;49406;51.044;3.766;2023-02-26T06:03:12;102270.91;;;0.49;78.10
63281;BME280;49406;51.044;3.766;2023-02-26T06:05:47;102270.67;;;0.48;77.91
63281;BME280;49406;51.044;3.766;2023-02-26T06:08:22;102276.93;;;0.44;78.02
63281;BME280;49406;51.044;3.766;2023-02-26T06:10:56;102283.70;;;0.35;78.31
63281;BME280;49406;51.044;3.766;2023-02-26T06:13:31;102285.40;;;0.30;78.81
63281;BME280;49406;51.044;3.766;2023-02-26T06:16:07;102290.84;;;0.26;78.93
63281;BME280;49406;51.044;3.766;2023-02-26T06:18:42;102296.36;;;0.22;78.76
63281;BME280;49406;51.044;3.766;2023-02-26T06:21:17;102301.14;;;0.19;78.65
63281;BME280;49406;51.044;3.766;2023-02-26T06:23:52;102304.86;;;0.16;78.64
63281;BME280;49406;51.044;3.766;2023-02-26T06:26:26;102309.66;;;0.27;77.91
63281;BME280;49406;51.044;3.766;2023-02-26T06:29:01;102310.79;;;0.32;77.56
63281;BME280;49406;51.044;3.766;2023-02-26T06:31:36;102319.84;;;0.26;77.04
63281;BME280;49406;51.044;3.766;2023-02-26T06:34:11;102322.67;;;0.22;77.07
63281;BME280;49406;51.044;3.766;2023-02-26T06:36:46;102320.48;;;0.20;77.09
63281;BME280;49406;51.044;3.766;2023-02-26T06:39:20;102324.63;;;0.16;77.20
63281;BME280;49406;51.044;3.766;2023-02-26T06:41:55;102322.37;;;0.13;76.80
63281;BME280;49406;51.044;3.766;2023-02-26T06:44:30;102324.55;;;0.26;76.26
63281;BME280;49406;51.044;3.766;2023-02-26T06:47:05;102336.64;;;0.32;75.92
63281;BME280;49406;51.044;3.766;2023-02-26T06:49:40;102346.67;;;0.28;75.80
63281;BME280;49406;51.044;3.766;2023-02-26T06:52:14;102353.04;;;0.23;76.37
63281;BME280;49406;51.044;3.766;2023-02-26T06:54:49;102362.70;;;0.19;76.69
63281;BME280;49406;51.044;3.766;2023-02-26T06:57:24;102365.71;;;0.29;76.62
63281;BME280;49406;51.044;3.766;2023-02-26T06:59:58;102369.20;;;0.56;75.89
63281;BME280;49406;51.044;3.766;2023-02-26T07:02:34;102371.60;;;0.79;74.71
63281;BME280;49406;51.044;3.766;2023-02-26T07:05:10;102379.13;;;1.01;73.37
63281;BME280;49406;51.044;3.766;2023-02-26T07:07:44;102385.20;;;1.21;73.03
63281;BME280;49406;51.044;3.766;2023-02-26T07:10:19;102386.44;;;1.40;72.35
63281;BME280;49406;51.044;3.766;2023-02-26T07:12:54;102390.14;;;1.59;71.37
63281;BME280;49406;51.044;3.766;2023-02-26T07:15:29;102394.38;;;1.75;70.77
63281;BME280;49406;51.044;3.766;2023-02-26T07:18:04;102404.23;;;1.91;69.87
63281;BME280;49406;51.044;3.766;2023-02-26T07:20:42;102404.55;;;2.06;69.16
63281;BME280;49406;51.044;3.766;2023-02-26T07:23:17;102408.55;;;2.22;68.22
63281;BME280;49406;51.044;3.766;2023-02-26T07:25:52;102410.64;;;2.30;66.97
63281;BME280;49406;51.044;3.766;2023-02-26T07:28:27;102412.45;;;2.41;67.58
63281;BME280;49406;51.044;3.766;2023-02-26T07:31:02;102420.85;;;2.56;67.14
63281;BME280;49406;51.044;3.766;2023-02-26T07:33:36;102427.25;;;2.69;66.33
63281;BME280;49406;51.044;3.766;2023-02-26T07:36:12;102426.38;;;2.77;65.69
63281;BME280;49406;51.044;3.766;2023-02-26T07:38:46;102424.32;;;2.72;63.49
63281;BME280;49406;51.044;3.766;2023-02-26T07:41:21;102418.48;;;2.78;63.95
63281;BME280;49406;51.044;3.766;2023-02-26T07:43:56;102430.20;;;2.86;63.29
63281;BME280;49406;51.044;3.766;2023-02-26T07:46:31;102435.60;;;2.92;63.38
63281;BME280;49406;51.044;3.766;2023-02-26T07:49:05;102438.98;;;2.98;62.97
63281;BME280;49406;51.044;3.766;2023-02-26T07:51:40;102445.14;;;3.03;62.84
63281;BME280;49406;51.044;3.766;2023-02-26T07:54:18;102450.60;;;3.07;62.27
63281;BME280;49406;51.044;3.766;2023-02-26T07:56:53;102451.84;;;2.94;61.84
63281;BME280;49406;51.044;3.766;2023-02-26T07:59:27;102459.87;;;2.75;62.22
63281;BME280;49406;51.044;3.766;2023-02-26T08:02:02;102462.01;;;2.49;62.59
63281;BME280;49406;51.044;3.766;2023-02-26T08:04:37;102462.48;;;2.33;63.83
63281;BME280;49406;51.044;3.766;2023-02-26T08:07:12;102463.48;;;2.20;64.23
63281;BME280;49406;51.044;3.766;2023-02-26T08:09:46;102462.36;;;2.11;64.19
63281;BME280;49406;51.044;3.766;2023-02-26T08:12:21;102472.03;;;2.01;64.32
63281;BME280;49406;51.044;3.766;2023-02-26T08:14:56;102471.08;;;1.97;64.67
63281;BME280;49406;51.044;3.766;2023-02-26T08:17:31;102469.41;;;1.91;64.43
63281;BME280;49406;51.044;3.766;2023-02-26T08:20:08;102470.71;;;1.89;64.84
63281;BME280;49406;51.044;3.766;2023-02-26T08:22:44;102470.77;;;1.90;65.17
63281;BME280;49406;51.044;3.766;2023-02-26T08:25:19;102474.38;;;1.90;64.45
63281;BME280;49406;51.044;3.766;2023-02-26T08:27:54;102482.35;;;1.91;64.44
63281;BME280;49406;51.044;3.766;2023-02-26T08:30:30;102483.44;;;1.94;64.78
63281;BME280;49406;51.044;3.766;2023-02-26T08:33:05;102486.40;;;1.94;64.46
63281;BME280;49406;51.044;3.766;2023-02-26T08:35:40;102487.49;;;2.00;64.16
63281;BME280;49406;51.044;3.766;2023-02-26T08:38:14;102487.77;;;2.04;63.37
63281;BME280;49406;51.044;3.766;2023-02-26T08:40:50;102489.02;;;2.09;62.85
63281;BME280;49406;51.044;3.766;2023-02-26T08:43:26;102489.29;;;2.11;62.20
63281;BME280;49406;51.044;3.766;2023-02-26T08:46:01;102490.65;;;2.17;62.41
63281;BME280;49406;51.044;3.766;2023-02-26T08:48:35;102490.77;;;2.20;61.86
63281;BME280;49406;51.044;3.766;2023-02-26T08:51:10;102491.91;;;2.27;61.06
63281;BME280;49406;51.044;3.766;2023-02-26T08:53:45;102496.85;;;2.33;61.55
63281;BME280;49406;51.044;3.766;2023-02-26T08:56:22;102498.92;;;2.38;60.03
63281;BME280;49406;51.044;3.766;2023-02-26T08:58:57;102500.95;;;2.43;59.91
63281;BME280;49406;51.044;3.766;2023-02-26T09:01:32;102508.50;;;2.53;59.15
63281;BME280;49406;51.044;3.766;2023-02-26T09:04:06;102504.55;;;2.84;57.77
63281;BME280;49406;51.044;3.766;2023-02-26T09:06:41;102506.05;;;3.20;56.36
63281;BME280;49406;51.044;3.766;2023-02-26T09:09:16;102504.30;;;3.47;54.12
63281;BME280;49406;51.044;3.766;2023-02-26T09:11:51;102515.33;;;3.71;52.91
63281;BME280;49406;51.044;3.766;2023-02-26T09:14:26;102513.44;;;3.90;51.42
63281;BME280;49406;51.044;3.766;2023-02-26T09:17:01;102529.63;;;4.09;50.36
63281;BME280;49406;51.044;3.766;2023-02-26T09:19:35;102530.02;;;4.12;49.78
63281;BME280;49406;51.044;3.766;2023-02-26T09:22:10;102532.77;;;4.26;50.09
63281;BME280;49406;51.044;3.766;2023-02-26T09:24:45;102536.48;;;4.36;49.05
63281;BME280;49406;51.044;3.766;2023-02-26T09:27:19;102538.80;;;4.34;47.81
63281;BME280;49406;51.044;3.766;2023-02-26T09:29:54;102541.99;;;4.53;48.41
63281;BME280;49406;51.044;3.766;2023-02-26T09:32:29;102549.84;;;4.65;48.25
63281;BME280;49406;51.044;3.766;2023-02-26T09:35:04;102552.39;;;4.73;47.47
63281;BME280;49406;51.044;3.766;2023-02-26T09:37:39;102553.45;;;4.82;47.32
63281;BME280;49406;51.044;3.766;2023-02-26T09:40:22;102556.52;;;4.84;47.52
63281;BME280;49406;51.044;3.766;2023-02-26T09:45:58;102562.83;;;5.00;47.18
63281;BME280;49406;51.044;3.766;2023-02-26T09:48:36;102566.73;;;4.96;48.16
63281;BME280;49406;51.044;3.766;2023-02-26T09:51:16;102564.69;;;4.96;48.03
63281;BME280;49406;51.044;3.766;2023-02-26T09:53:53;102569.98;;;5.16;48.80
63281;BME280;49406;51.044;3.766;2023-02-26T09:56:34;102576.23;;;5.31;48.72
63281;BME280;49406;51.044;3.766;2023-02-26T09:59:11;102576.70;;;5.46;48.74
63281;BME280;49406;51.044;3.766;2023-02-26T10:01:51;102582.04;;;5.66;48.14
63281;BME280;49406;51.044;3.766;2023-02-26T10:04:43;102583.89;;;5.65;46.61
63281;BME280;49406;51.044;3.766;2023-02-26T10:07:29;102595.52;;;5.62;45.78
63281;BME280;49406;51.044;3.766;2023-02-26T10:10:21;102598.25;;;5.61;45.26
63281;BME280;49406;51.044;3.766;2023-02-26T10:12:59;102601.62;;;5.51;44.82
63281;BME280;49406;51.044;3.766;2023-02-26T10:15:38;102603.79;;;5.49;44.22
63281;BME280;49406;51.044;3.766;2023-02-26T10:18:18;102601.98;;;5.48;44.15
63281;BME280;49406;51.044;3.766;2023-02-26T10:20:57;102610.59;;;5.35;44.44
63281;BME280;49406;51.044;3.766;2023-02-26T10:23:40;102611.52;;;5.35;44.57
63281;BME280;49406;51.044;3.766;2023-02-26T10:26:19;102619.23;;;5.40;44.09
63281;BME280;49406;51.044;3.766;2023-02-26T10:29:01;102620.55;;;5.48;43.86
63281;BME280;49406;51.044;3.766;2023-02-26T10:31:41;102620.48;;;5.44;44.31
63281;BME280;49406;51.044;3.766;2023-02-26T10:34:22;102621.49;;;5.46;44.84
63281;BME280;49406;51.044;3.766;2023-02-26T10:37:15;102624.00;;;5.59;45.22
63281;BME280;49406;51.044;3.766;2023-02-26T10:39:55;102625.40;;;5.57;44.35
63281;BME280;49406;51.044;3.766;2023-02-26T10:42:38;102627.91;;;5.55;44.51
63281;BME280;49406;51.044;3.766;2023-02-26T10:45:27;102626.72;;;5.44;44.67
63281;BME280;49406;51.044;3.766;2023-02-26T10:48:17;102633.51;;;5.59;44.66
63281;BME280;49406;51.044;3.766;2023-02-26T10:50:55;102631.23;;;5.38;43.43
63281;BME280;49406;51.044;3.766;2023-02-26T10:53:31;102628.97;;;5.14;44.26
63281;BME280;49406;51.044;3.766;2023-02-26T10:56:10;102621.08;;;5.09;45.98
63281;BME280;49406;51.044;3.766;2023-02-26T10:58:46;102622.48;;;5.12;46.07
63281;BME280;49406;51.044;3.766;2023-02-26T11:01:22;102620.64;;;5.02;46.54
63281;BME280;49406;51.044;3.766;2023-02-26T11:03:59;102619.71;;;4.98;46.66
63281;BME280;49406;51.044;3.766;2023-02-26T11:06:40;102621.57;;;4.88;47.39
63281;BME280;49406;51.044;3.766;2023-02-26T11:09:19;102619.30;;;4.79;47.33
63281;BME280;49406;51.044;3.766;2023-02-26T11:12:00;102630.63;;;4.77;47.94
63281;BME280;49406;51.044;3.766;2023-02-26T11:14:37;102625.98;;;4.78;47.93
63281;BME280;49406;51.044;3.766;2023-02-26T11:17:15;102629.77;;;4.75;47.80
63281;BME280;49406;51.044;3.766;2023-02-26T11:19:54;102633.50;;;4.65;46.71
63281;BME280;49406;51.044;3.766;2023-02-26T11:22:33;102630.27;;;4.54;45.75
63281;BME280;49406;51.044;3.766;2023-02-26T11:25:15;102629.95;;;4.49;46.21
63281;BME280;49406;51.044;3.766;2023-02-26T11:27:54;102629.23;;;4.43;44.86
63281;BME280;49406;51.044;3.766;2023-02-26T11:30:34;102630.91;;;4.48;44.49
63281;BME280;49406;51.044;3.766;2023-02-26T11:33:19;102633.59;;;4.47;44.14
63281;BME280;49406;51.044;3.766;2023-02-26T11:36:00;102631.30;;;4.57;46.05
63281;BME280;49406;51.044;3.766;2023-02-26T11:38:37;102628.19;;;4.60;45.11
63281;BME280;49406;51.044;3.766;2023-02-26T11:41:13;102635.25;;;4.63;43.68
63281;BME280;49406;51.044;3.766;2023-02-26T11:43:57;102633.75;;;4.58;43.55
63281;BME280;49406;51.044;3.766;2023-02-26T11:46:37;102632.40;;;4.58;44.19
63281;BME280;49406;51.044;3.766;2023-02-26T11:49:18;102631.29;;;4.57;44.95
63281;BME280;49406;51.044;3.766;2023-02-26T11:52:14;102630.23;;;4.62;45.20
63281;BME280;49406;51.044;3.766;2023-02-26T11:54:53;102634.64;;;4.69;42.51
63281;BME280;49406;51.044;3.766;2023-02-26T11:57:31;102637.48;;;4.65;43.37
63281;BME280;49406;51.044;3.766;2023-02-26T12:00:19;102641.41;;;4.75;43.52
63281;BME280;49406;51.044;3.766;2023-02-26T12:03:01;102640.30;;;4.77;44.00
63281;BME280;49406;51.044;3.766;2023-02-26T12:05:36;102637.21;;;4.89;44.57
63281;BME280;49406;51.044;3.766;2023-02-26T12:08:19;102636.48;;;4.94;43.99
63281;BME280;49406;51.044;3.766;2023-02-26T12:11:06;102640.50;;;4.98;44.41
63281;BME280;49406;51.044;3.766;2023-02-26T12:13:47;102638.03;;;4.91;43.69
63281;BME280;49406;51.044;3.766;2023-02-26T12:16:38;102638.67;;;4.85;45.06
63281;BME280;49406;51.044;3.766;2023-02-26T12:19:33;102635.50;;;4.84;44.06
63281;BME280;49406;51.044;3.766;2023-02-26T12:22:28;102638.70;;;4.79;45.00
63281;BME280;49406;51.044;3.766;2023-02-26T12:25:23;102633.15;;;4.88;45.47
63281;BME280;49406;51.044;3.766;2023-02-26T12:31:31;102633.67;;;5.11;44.14
63281;BME280;49406;51.044;3.766;2023-02-26T12:34:28;102633.20;;;5.27;44.78
63281;BME280;49406;51.044;3.766;2023-02-26T12:37:30;102644.35;;;5.31;44.71
63281;BME280;49406;51.044;3.766;2023-02-26T12:40:16;102636.95;;;5.31;42.51
63281;BME280;49406;51.044;3.766;2023-02-26T12:42:58;102649.97;;;5.29;41.98
63281;BME280;49406;51.044;3.766;2023-02-26T12:45:45;102647.12;;;5.19;41.41
63281;BME280;49406;51.044;3.766;2023-02-26T12:51:19;102647.36;;;5.02;41.21
63281;BME280;49406;51.044;3.766;2023-02-26T12:54:13;102654.70;;;5.00;41.23
63281;BME280;49406;51.044;3.766;2023-02-26T12:57:16;102653.95;;;5.02;41.62
63281;BME280;49406;51.044;3.766;2023-02-26T13:00:14;102643.07;;;5.05;41.57
63281;BME280;49406;51.044;3.766;2023-02-26T13:03:27;102648.36;;;5.10;42.32
63281;BME280;49406;51.044;3.766;2023-02-26T13:06:43;102651.80;;;5.13;42.74
63281;BME280;49406;51.044;3.766;2023-02-26T13:09:23;102643.52;;;5.13;42.87
63281;BME280;49406;51.044;3.766;2023-02-26T13:12:24;102645.79;;;5.23;43.40
63281;BME280;49406;51.044;3.766;2023-02-26T13:15:18;102649.80;;;5.29;42.18
63281;BME280;49406;51.044;3.766;2023-02-26T13:18:00;102654.21;;;5.24;41.62
63281;BME280;49406;51.044;3.766;2023-02-26T13:20:39;102648.64;;;5.21;42.59
63281;BME280;49406;51.044;3.766;2023-02-26T13:23:18;102645.86;;;5.30;42.80
63281;BME280;49406;51.044;3.766;2023-02-26T13:25:56;102646.06;;;5.36;42.95
63281;BME280;49406;51.044;3.766;2023-02-26T13:28:38;102645.11;;;5.43;43.24
63281;BME280;49406;51.044;3.766;2023-02-26T13:31:16;102646.23;;;5.45;43.49
63281;BME280;49406;51.044;3.766;2023-02-26T13:33:54;102642.96;;;5.42;43.69
63281;BME280;49406;51.044;3.766;2023-02-26T13:36:30;102645.88;;;5.45;43.52
63281;BME280;49406;51.044;3.766;2023-02-26T13:39:20;102639.33;;;5.42;43.27
63281;BME280;49406;51.044;3.766;2023-02-26T13:42:03;102638.76;;;5.51;43.99
63281;BME280;49406;51.044;3.766;2023-02-26T13:44:50;102643.83;;;5.60;43.73
63281;BME280;49406;51.044;3.766;2023-02-26T13:47:40;102644.90;;;5.61;42.88
63281;BME280;49406;51.044;3.766;2023-02-26T13:50:33;102644.05;;;5.71;43.99
63281;BME280;49406;51.044;3.766;2023-02-26T13:53:46;102641.30;;;5.80;43.98
63281;BME280;49406;51.044;3.766;2023-02-26T13:56:46;102633.73;;;5.88;43.78
63281;BME280;49406;51.044;3.766;2023-02-26T13:59:34;102639.50;;;5.94;44.18
63281;BME280;49406;51.044;3.766;2023-02-26T14:05:34;102640.83;;;5.81;43.82
63281;BME280;49406;51.044;3.766;2023-02-26T14:08:24;102642.13;;;5.83;43.77
63281;BME280;49406;51.044;3.766;2023-02-26T14:11:03;102640.37;;;5.83;43.86
63281;BME280;49406;51.044;3.766;2023-02-26T14:13:39;102637.21;;;5.82;44.15
63281;BME280;49406;51.044;3.766;2023-02-26T14:16:22;102638.53;;;5.77;44.35
63281;BME280;49406;51.044;3.766;2023-02-26T14:19:04;102639.43;;;5.69;43.98